createdAt,value
2019-06-20T00:00:37.527Z,11.13
2019-06-20T00:03:07.759Z,10.37
2019-06-20T00:05:37.697Z,10.83
2019-06-20T00:08:07.595Z,10.60
2019-06-20T00:10:37.311Z,11.50
2019-06-20T00:13:07.199Z,10.83
2019-06-20T00:15:37.429Z,11.30
2019-06-20T00:18:07.556Z,10.80
2019-06-20T00:20:37.161Z,11.37
2019-06-20T00:23:08.298Z,11.90
2019-06-20T00:25:38.315Z,11.50
2019-06-20T00:28:08.434Z,11.37
2019-06-20T00:30:38.562Z,11.63
2019-06-20T00:33:08.272Z,12.73
2019-06-20T00:35:38.726Z,11.97
2019-06-20T00:38:08.501Z,13.13
2019-06-20T00:40:38.113Z,11.97
2019-06-20T00:43:17.649Z,12.77
2019-06-20T00:45:40.291Z,13.90
2019-06-20T00:48:10.517Z,12.57
2019-06-20T00:50:40.561Z,11.07
2019-06-20T00:53:10.881Z,11.43
2019-06-20T00:55:40.998Z,11.97
2019-06-20T00:58:11.177Z,11.07
2019-06-20T01:00:41.518Z,12.70
2019-06-20T01:03:11.557Z,13.60
2019-06-20T01:05:41.479Z,17.30
2019-06-20T01:08:11.503Z,18.27
2019-06-20T01:10:41.288Z,15.77
2019-06-20T01:13:11.937Z,15.67
2019-06-20T01:15:41.720Z,15.17
2019-06-20T01:18:11.533Z,17.13
2019-06-20T01:20:41.756Z,14.37
2019-06-20T01:23:11.897Z,14.50
2019-06-20T01:25:43.457Z,12.57
2019-06-20T01:28:13.878Z,12.60
2019-06-20T01:30:44.479Z,13.93
2019-06-20T01:33:14.937Z,12.00
2019-06-20T01:35:44.959Z,11.70
2019-06-20T01:38:15.660Z,11.63
2019-06-20T01:40:46.417Z,12.67
2019-06-20T01:43:17.239Z,12.40
2019-06-20T01:45:52.465Z,18.73
2019-06-20T01:48:23.319Z,13.70
2019-06-20T01:50:53.334Z,15.37
2019-06-20T01:53:23.454Z,16.07
2019-06-20T01:55:54.177Z,14.87
2019-06-20T01:58:25.313Z,17.17
2019-06-20T02:00:55.459Z,12.47
2019-06-20T02:03:26.178Z,13.70
2019-06-20T02:05:56.694Z,14.17
2019-06-20T02:08:27.657Z,13.47
2019-06-20T02:10:58.398Z,12.63
2019-06-20T02:13:28.486Z,14.97
2019-06-20T02:15:58.935Z,11.73
2019-06-20T02:18:29.541Z,13.73
2019-06-20T02:21:00.718Z,11.03
2019-06-20T02:23:31.658Z,12.73
2019-06-20T02:26:03.485Z,13.90
2019-06-20T02:28:34.338Z,11.30
2019-06-20T02:31:06.088Z,12.57
2019-06-20T02:33:37.760Z,12.33
2019-06-20T02:36:07.877Z,13.83
2019-06-20T02:38:39.535Z,14.43
2019-06-20T02:41:10.565Z,14.80
2019-06-20T02:43:43.535Z,13.37
2019-06-20T02:46:15.939Z,13.23
2019-06-20T02:48:46.850Z,14.30
2019-06-20T02:51:17.918Z,13.13
2019-06-20T02:53:48.538Z,13.20
2019-06-20T02:56:18.955Z,12.27
2019-06-20T02:58:49.498Z,10.87
2019-06-20T03:01:23.277Z,11.47
2019-06-20T03:03:55.155Z,10.63
2019-06-20T03:06:26.097Z,13.23
2019-06-20T03:08:56.318Z,12.67
2019-06-20T03:11:26.520Z,14.43
2019-06-20T03:13:56.850Z,11.13
2019-06-20T03:16:27.398Z,13.30
2019-06-20T03:18:57.821Z,13.20
2019-06-20T03:21:27.840Z,14.37
2019-06-20T03:23:57.959Z,10.80
2019-06-20T03:26:28.481Z,13.10
2019-06-20T03:28:58.097Z,12.70
2019-06-20T03:31:28.525Z,11.07
2019-06-20T03:33:58.938Z,11.37
2019-06-20T03:36:28.654Z,11.70
2019-06-20T03:38:58.877Z,11.40
2019-06-20T03:41:28.778Z,11.20
2019-06-20T03:43:59.169Z,10.83
2019-06-20T03:46:29.718Z,11.63
2019-06-20T03:48:59.957Z,11.20
2019-06-20T03:51:30.078Z,11.17
2019-06-20T03:54:00.495Z,11.70
2019-06-20T03:56:30.414Z,10.60
2019-06-20T03:59:00.539Z,10.30
2019-06-20T04:01:30.640Z,13.13
2019-06-20T04:04:00.756Z,10.10
2019-06-20T04:06:30.881Z,11.77
2019-06-20T04:09:00.922Z,13.60
2019-06-20T04:11:31.438Z,11.23
2019-06-20T04:14:01.536Z,11.73
2019-06-20T04:16:31.877Z,11.87
2019-06-20T04:19:02.178Z,11.70
2019-06-20T04:21:32.177Z,11.90
2019-06-20T04:24:02.544Z,11.73
2019-06-20T04:26:32.438Z,10.10
2019-06-20T04:29:02.882Z,11.63
2019-06-20T04:31:32.777Z,11.47
2019-06-20T04:34:02.696Z,11.33
2019-06-20T04:36:32.736Z,13.07
2019-06-20T04:39:15.595Z,13.80
2019-06-20T04:41:34.076Z,14.00
2019-06-20T04:44:04.305Z,11.30
2019-06-20T04:46:39.841Z,11.23
2019-06-20T04:49:09.756Z,13.67
2019-06-20T04:51:39.875Z,14.30
2019-06-20T04:54:09.588Z,13.97
2019-06-20T04:56:39.701Z,12.90
2019-06-20T04:59:09.824Z,12.70
2019-06-20T05:01:39.854Z,12.00
2019-06-20T05:04:10.265Z,15.23
2019-06-20T05:06:42.532Z,15.20
2019-06-20T05:09:13.168Z,15.57
2019-06-20T05:11:43.292Z,12.87
2019-06-20T05:14:14.349Z,17.77
2019-06-20T05:16:43.931Z,13.13
2019-06-20T05:19:14.062Z,13.37
2019-06-20T05:21:44.074Z,14.77
2019-06-20T05:24:14.188Z,12.07
2019-06-20T05:26:44.513Z,9.80
2019-06-20T05:29:14.735Z,11.70
2019-06-20T05:31:45.389Z,18.47
2019-06-20T05:34:15.903Z,11.63
2019-06-20T05:36:45.812Z,11.47
2019-06-20T05:39:16.061Z,12.80
2019-06-20T05:41:46.161Z,9.40
2019-06-20T05:44:16.568Z,10.10
2019-06-20T05:46:47.247Z,11.30
2019-06-20T05:49:17.424Z,11.47
2019-06-20T05:51:50.330Z,10.20
2019-06-20T05:54:20.551Z,10.37
2019-06-20T05:56:50.544Z,8.30
2019-06-20T05:59:20.680Z,10.63
2019-06-20T06:01:50.899Z,10.60
2019-06-20T06:04:20.809Z,9.30
2019-06-20T06:06:51.431Z,9.70
2019-06-20T06:09:22.267Z,6.20
2019-06-20T06:11:52.173Z,6.50
2019-06-20T06:14:22.410Z,7.63
2019-06-20T06:16:52.631Z,10.47
2019-06-20T06:19:22.871Z,7.27
2019-06-20T06:21:52.762Z,6.87
2019-06-20T06:24:22.779Z,8.30
2019-06-20T06:26:58.491Z,8.57
2019-06-20T06:29:26.407Z,7.90
2019-06-20T06:31:56.512Z,8.50
2019-06-20T06:34:26.741Z,6.57
2019-06-20T06:36:56.543Z,6.37
2019-06-20T06:39:26.567Z,6.63
2019-06-20T06:41:56.812Z,5.70
2019-06-20T06:44:26.929Z,4.80
2019-06-20T06:46:59.600Z,6.97
2019-06-20T06:49:28.572Z,6.83
2019-06-20T06:51:58.917Z,7.00
2019-06-20T06:54:29.736Z,5.47
2019-06-20T06:57:03.028Z,7.63
2019-06-20T06:59:39.492Z,8.50
2019-06-20T07:02:11.256Z,5.70
2019-06-20T07:04:44.749Z,4.27
2019-06-20T07:07:14.865Z,5.93
2019-06-20T07:09:44.782Z,7.80
2019-06-20T07:12:14.701Z,6.90
2019-06-20T07:14:44.840Z,9.70
2019-06-20T07:17:14.730Z,6.73
2019-06-20T07:19:47.317Z,12.60
2019-06-20T07:22:17.528Z,11.33
2019-06-20T07:24:47.544Z,4.30
2019-06-20T07:27:17.969Z,4.50
2019-06-20T07:29:47.988Z,12.93
2019-06-20T07:32:18.310Z,4.63
2019-06-20T07:34:48.118Z,4.40
2019-06-20T07:37:17.725Z,4.40
2019-06-20T07:39:47.757Z,6.63
2019-06-20T07:42:17.761Z,4.77
2019-06-20T07:44:47.882Z,9.43
2019-06-20T07:47:18.278Z,4.17
2019-06-20T07:49:48.528Z,4.43
2019-06-20T07:52:18.877Z,4.33
2019-06-20T07:54:49.286Z,5.33
2019-06-20T07:57:19.576Z,6.23
2019-06-20T07:59:49.413Z,4.50
2019-06-20T08:02:19.844Z,4.93
2019-06-20T08:04:49.553Z,5.03
2019-06-20T08:07:19.361Z,4.27
2019-06-20T08:09:49.412Z,7.00
2019-06-20T08:12:19.804Z,4.43
2019-06-20T08:14:49.409Z,6.37
2019-06-20T08:17:34.457Z,8.10
2019-06-20T08:19:51.389Z,7.03
2019-06-20T08:22:22.534Z,5.97
2019-06-20T08:24:54.673Z,4.53
2019-06-20T08:27:43.864Z,4.47
2019-06-20T08:30:14.092Z,4.27
2019-06-20T08:32:48.841Z,3.70
2019-06-20T08:35:20.569Z,18.83
2019-06-20T08:37:50.693Z,7.77
2019-06-20T08:40:20.704Z,6.90
2019-06-20T08:42:50.520Z,10.43
2019-06-20T08:45:21.463Z,3.57
2019-06-20T08:47:51.478Z,6.70
2019-06-20T08:50:21.738Z,3.07
2019-06-20T08:52:51.505Z,4.37
2019-06-20T08:55:21.756Z,5.63
2019-06-20T08:57:51.751Z,5.13
2019-06-20T09:00:22.270Z,3.63
2019-06-20T09:02:52.202Z,6.07
2019-06-20T09:05:22.508Z,7.47
2019-06-20T09:07:54.808Z,3.83
2019-06-20T09:10:26.474Z,13.47
2019-06-20T09:12:57.051Z,6.47
2019-06-20T09:15:27.286Z,4.43
2019-06-20T09:17:58.466Z,4.27
2019-06-20T09:20:28.756Z,4.20
2019-06-20T09:22:59.087Z,3.70
2019-06-20T09:25:29.192Z,4.10
2019-06-20T09:28:00.412Z,3.93
2019-06-20T09:30:30.869Z,4.23
2019-06-20T09:33:01.292Z,4.10
2019-06-20T09:35:31.718Z,3.90
2019-06-20T09:38:14.864Z,5.47
2019-06-20T09:40:46.498Z,4.03
2019-06-20T09:43:27.210Z,3.63
2019-06-20T09:45:49.737Z,5.30
2019-06-20T09:48:20.543Z,4.83
2019-06-20T09:50:51.585Z,3.83
2019-06-20T09:53:22.835Z,3.90
2019-06-20T09:55:55.631Z,4.53
2019-06-20T09:58:28.287Z,5.67
2019-06-20T10:00:59.218Z,4.20
2019-06-20T10:03:29.249Z,4.20
2019-06-20T10:06:00.633Z,3.63
2019-06-20T10:08:33.692Z,3.53
2019-06-20T10:11:06.063Z,5.00
2019-06-20T10:14:04.044Z,3.93
2019-06-20T10:16:45.231Z,3.33
2019-06-20T10:19:09.206Z,6.60
2019-06-20T10:21:43.292Z,4.53
2019-06-20T10:24:14.021Z,4.37
2019-06-20T10:26:45.081Z,4.30
2019-06-20T10:29:15.434Z,4.83
2019-06-20T10:31:47.920Z,3.70
2019-06-20T10:34:19.536Z,3.40
2019-06-20T10:36:50.090Z,4.00
2019-06-20T10:39:20.572Z,4.53
2019-06-20T10:41:50.531Z,3.70
2019-06-20T10:44:20.814Z,4.07
2019-06-20T10:46:51.409Z,4.20
2019-06-20T10:49:23.003Z,6.60
2019-06-20T10:51:53.018Z,3.20
2019-06-20T10:54:22.826Z,5.57
2019-06-20T10:56:54.374Z,4.23
2019-06-20T10:59:24.728Z,4.00
2019-06-20T11:01:54.410Z,4.07
2019-06-20T11:04:24.835Z,5.70
2019-06-20T11:06:54.543Z,4.83
2019-06-20T11:09:24.970Z,4.23
2019-06-20T11:11:55.498Z,3.80
2019-06-20T11:14:25.493Z,5.87
2019-06-20T11:16:55.544Z,6.00
2019-06-20T11:19:26.882Z,3.70
2019-06-20T11:21:57.928Z,3.50
2019-06-20T11:24:29.164Z,3.83
2019-06-20T11:27:00.524Z,3.83
2019-06-20T11:29:30.847Z,5.50
2019-06-20T11:32:01.079Z,3.80
2019-06-20T11:34:31.894Z,4.67
2019-06-20T11:37:01.821Z,3.80
2019-06-20T11:39:35.647Z,7.60
2019-06-20T11:42:05.323Z,5.10
2019-06-20T11:44:35.897Z,5.77
2019-06-20T11:47:20.611Z,3.63
2019-06-20T11:49:51.039Z,3.57
2019-06-20T11:52:20.874Z,3.17
2019-06-20T11:55:09.610Z,3.57
2019-06-20T11:57:39.729Z,3.83
2019-06-20T12:00:10.231Z,3.93
2019-06-20T12:02:41.136Z,3.03
2019-06-20T12:05:13.986Z,4.07
2019-06-20T12:07:45.640Z,3.93
2019-06-20T12:10:20.050Z,6.97
2019-06-20T12:12:50.288Z,3.57
2019-06-20T12:15:21.017Z,2.93
2019-06-20T12:17:50.724Z,3.67
2019-06-20T12:20:22.169Z,3.57
2019-06-20T12:22:53.520Z,3.23
2019-06-20T12:25:24.783Z,3.40
2019-06-20T12:27:55.701Z,4.43
2019-06-20T12:30:26.218Z,4.23
2019-06-20T12:32:57.815Z,5.10
2019-06-20T12:35:30.053Z,3.97
2019-06-20T12:38:00.574Z,3.60
2019-06-20T12:40:39.286Z,3.37
2019-06-20T12:43:14.038Z,3.90
2019-06-20T12:45:44.975Z,3.67
2019-06-20T12:48:20.725Z,5.73
2019-06-20T12:50:54.835Z,3.93
2019-06-20T12:53:25.975Z,4.47
2019-06-20T12:55:59.569Z,3.40
2019-06-20T12:58:30.526Z,4.60
2019-06-20T13:01:03.005Z,3.77
2019-06-20T13:03:32.795Z,3.73
2019-06-20T13:06:02.824Z,4.33
2019-06-20T13:08:36.521Z,4.80
2019-06-20T13:11:06.547Z,3.63
2019-06-20T13:13:38.951Z,3.77
2019-06-20T13:16:10.453Z,4.20
2019-06-20T13:18:44.484Z,4.63
2019-06-20T13:21:14.593Z,3.53
2019-06-20T13:23:45.066Z,3.53
2019-06-20T13:26:15.328Z,4.57
2019-06-20T13:29:00.653Z,3.60
2019-06-20T13:31:17.104Z,3.63
2019-06-20T13:33:48.876Z,5.03
2019-06-20T13:36:19.089Z,3.30
2019-06-20T13:38:50.235Z,3.40
2019-06-20T13:41:19.963Z,5.97
2019-06-20T13:43:50.258Z,3.93
2019-06-20T13:46:20.278Z,3.70
2019-06-20T13:48:51.155Z,4.10
2019-06-20T13:51:21.334Z,5.13
2019-06-20T13:53:51.977Z,5.03
2019-06-20T13:56:23.416Z,8.57
2019-06-20T13:58:54.145Z,5.37
2019-06-20T14:01:24.783Z,4.53
2019-06-20T14:03:54.794Z,4.20
2019-06-20T14:06:24.809Z,5.13
2019-06-20T14:08:54.602Z,5.83
2019-06-20T14:11:24.544Z,6.83
2019-06-20T14:13:54.348Z,6.73
2019-06-20T14:16:43.108Z,7.13
2019-06-20T14:19:13.455Z,6.83
2019-06-20T14:21:44.166Z,6.93
2019-06-20T14:24:14.795Z,5.80
2019-06-20T14:26:46.327Z,5.40
2019-06-20T14:29:16.361Z,5.30
2019-06-20T14:31:47.250Z,5.43
2019-06-20T14:34:17.522Z,6.30
2019-06-20T14:36:50.163Z,6.03
2019-06-20T14:39:19.294Z,9.23
2019-06-20T14:41:51.305Z,4.60
2019-06-20T14:44:21.484Z,8.70
2019-06-20T14:46:51.397Z,4.80
2019-06-20T14:49:21.511Z,6.57
2019-06-20T14:51:52.758Z,5.63
2019-06-20T14:54:22.771Z,4.03
2019-06-20T14:56:53.958Z,4.83
2019-06-20T14:59:24.367Z,5.33
2019-06-20T15:01:55.455Z,4.83
2019-06-20T15:04:25.508Z,4.30
2019-06-20T15:06:55.961Z,4.43
2019-06-20T15:09:26.699Z,5.47
2019-06-20T15:11:56.883Z,5.27
2019-06-20T15:14:26.909Z,9.20
2019-06-20T15:16:58.349Z,6.13
2019-06-20T15:19:28.365Z,5.17
2019-06-20T15:21:58.411Z,7.50
2019-06-20T15:24:28.824Z,5.50
2019-06-20T15:26:58.520Z,5.70
2019-06-20T15:29:29.869Z,6.00
2019-06-20T15:32:00.706Z,6.63
2019-06-20T15:34:30.821Z,4.57
2019-06-20T15:37:01.980Z,4.27
2019-06-20T15:39:35.471Z,4.70
2019-06-20T15:42:06.709Z,5.77
2019-06-20T15:44:37.557Z,5.17
2019-06-20T15:47:10.634Z,6.83
2019-06-20T15:49:41.687Z,6.53
2019-06-20T15:52:14.043Z,6.40
2019-06-20T15:54:46.160Z,5.43
2019-06-20T15:57:17.874Z,4.17
2019-06-20T15:59:49.531Z,4.10
2019-06-20T16:02:20.075Z,3.93
2019-06-20T16:04:58.362Z,4.90
2019-06-20T16:07:29.913Z,4.60
2019-06-20T16:10:00.672Z,4.87
2019-06-20T16:12:33.644Z,3.97
2019-06-20T16:15:03.552Z,5.33
2019-06-20T16:17:34.495Z,6.20
2019-06-20T16:20:07.472Z,6.80
2019-06-20T16:22:39.541Z,4.77
2019-06-20T16:25:11.605Z,4.60
2019-06-20T16:27:42.543Z,5.70
2019-06-20T16:30:13.377Z,5.93
2019-06-20T16:32:44.201Z,7.40
2019-06-20T16:35:16.379Z,6.57
2019-06-20T16:37:49.981Z,6.17
2019-06-20T16:40:25.535Z,5.40
2019-06-20T16:42:55.748Z,5.77
2019-06-20T16:45:25.661Z,7.67
2019-06-20T16:48:10.388Z,5.57
2019-06-20T16:50:42.587Z,7.10
2019-06-20T16:53:14.655Z,5.10
2019-06-20T16:55:45.283Z,4.90
2019-06-20T16:58:15.606Z,6.17
2019-06-20T17:00:47.581Z,5.23
2019-06-20T17:03:17.404Z,6.23
2019-06-20T17:05:48.337Z,4.80
2019-06-20T17:08:19.462Z,5.10
2019-06-20T17:10:49.787Z,4.63
2019-06-20T17:13:19.675Z,5.93
2019-06-20T17:15:50.545Z,5.73
2019-06-20T17:18:20.560Z,5.17
2019-06-20T17:20:50.876Z,7.40
2019-06-20T17:23:20.896Z,4.90
2019-06-20T17:25:50.808Z,4.67
2019-06-20T17:28:20.519Z,4.93
2019-06-20T17:30:50.227Z,6.57
2019-06-20T17:33:20.143Z,4.80
2019-06-20T17:35:50.158Z,4.33
2019-06-20T17:38:20.484Z,6.67
2019-06-20T17:40:50.189Z,4.83
2019-06-20T17:43:20.140Z,4.40
2019-06-20T17:45:50.129Z,6.00
2019-06-20T17:48:20.754Z,4.30
2019-06-20T17:50:50.989Z,4.40
2019-06-20T17:53:20.680Z,5.33
2019-06-20T17:55:51.314Z,5.20
2019-06-20T17:58:21.217Z,4.77
2019-06-20T18:00:51.454Z,6.70
2019-06-20T18:03:21.469Z,3.80
2019-06-20T18:05:51.072Z,3.30
2019-06-20T18:08:21.401Z,3.67
2019-06-20T18:10:52.851Z,4.17
2019-06-20T18:13:22.761Z,4.50
2019-06-20T18:15:53.815Z,4.40
2019-06-20T18:18:24.532Z,4.30
2019-06-20T18:20:55.482Z,4.23
2019-06-20T18:23:26.726Z,5.37
2019-06-20T18:25:56.545Z,4.73
2019-06-20T18:28:26.884Z,5.50
2019-06-20T18:30:57.418Z,4.60
2019-06-20T18:33:27.101Z,5.57
2019-06-20T18:35:57.826Z,5.50
2019-06-20T18:38:29.904Z,4.67
2019-06-20T18:41:00.726Z,6.40
2019-06-20T18:43:34.427Z,3.57
2019-06-20T18:46:07.155Z,4.00
2019-06-20T18:48:45.938Z,5.13
2019-06-20T18:51:20.230Z,4.37
2019-06-20T18:53:53.849Z,4.33
2019-06-20T18:56:29.402Z,4.60
2019-06-20T18:59:12.316Z,5.03
2019-06-20T19:02:05.373Z,4.90
2019-06-20T19:04:58.126Z,4.73
2019-06-20T19:07:47.002Z,5.63
2019-06-20T19:10:24.160Z,5.73
2019-06-20T19:12:54.589Z,6.60
2019-06-20T19:15:25.729Z,6.63
2019-06-20T19:17:55.959Z,6.50
2019-06-20T19:20:26.998Z,7.13
2019-06-20T19:22:58.966Z,7.80
2019-06-20T19:25:28.874Z,6.73
2019-06-20T19:28:05.030Z,5.57
2019-06-20T19:30:41.511Z,5.90
2019-06-20T19:33:13.359Z,9.47
2019-06-20T19:35:43.378Z,7.43
2019-06-20T19:38:14.311Z,5.73
2019-06-20T19:40:46.181Z,5.93
2019-06-20T19:43:16.851Z,6.97
2019-06-20T19:45:48.256Z,8.33
2019-06-20T19:48:18.786Z,6.77
2019-06-20T19:50:50.242Z,6.03
2019-06-20T19:53:20.236Z,6.17
2019-06-20T19:55:50.471Z,7.00
2019-06-20T19:58:20.795Z,6.17
2019-06-20T20:00:50.820Z,6.20
2019-06-20T20:03:36.294Z,6.67
2019-06-20T20:06:09.488Z,7.87
2019-06-20T20:08:40.519Z,6.07
2019-06-20T20:11:10.745Z,6.10
2019-06-20T20:13:40.860Z,6.17
2019-06-20T20:16:10.777Z,5.50
2019-06-20T20:18:41.156Z,6.07
2019-06-20T20:21:11.533Z,6.13
2019-06-20T20:23:41.860Z,6.90
2019-06-20T20:26:11.661Z,7.03
2019-06-20T20:28:41.575Z,5.27
2019-06-20T20:31:11.285Z,6.30
2019-06-20T20:33:41.305Z,8.00
2019-06-20T20:36:23.945Z,8.10
2019-06-20T20:38:43.905Z,6.77
2019-06-20T20:41:13.808Z,8.57
2019-06-20T20:43:45.981Z,7.03
2019-06-20T20:46:15.896Z,6.03
2019-06-20T20:48:45.805Z,6.93
2019-06-20T20:51:15.924Z,6.10
2019-06-20T20:53:47.168Z,7.40
2019-06-20T20:56:17.293Z,9.23
2019-06-20T20:58:47.508Z,5.50
2019-06-20T21:01:20.801Z,5.27
2019-06-20T21:03:50.400Z,7.27
2019-06-20T21:06:20.336Z,7.47
2019-06-20T21:08:49.825Z,7.10
2019-06-20T21:11:19.765Z,6.00
2019-06-20T21:13:49.861Z,6.47
2019-06-20T21:16:20.086Z,10.47
2019-06-20T21:18:50.718Z,10.03
2019-06-20T21:21:20.839Z,7.83
2019-06-20T21:23:51.164Z,6.87
2019-06-20T21:26:21.594Z,7.57
2019-06-20T21:28:52.726Z,8.93
2019-06-20T21:31:22.764Z,8.40
2019-06-20T21:33:54.480Z,10.57
2019-06-20T21:36:24.197Z,11.37
2019-06-20T21:38:54.329Z,10.00
2019-06-20T21:41:24.759Z,10.80
2019-06-20T21:43:55.285Z,12.00
2019-06-20T21:46:25.809Z,8.50
2019-06-20T21:48:56.338Z,7.40
2019-06-20T21:51:25.843Z,7.20
2019-06-20T21:53:55.452Z,6.40
2019-06-20T21:56:25.883Z,6.30
2019-06-20T21:58:55.588Z,7.23
2019-06-20T22:01:25.500Z,9.37
2019-06-20T22:03:55.928Z,8.37
2019-06-20T22:06:26.727Z,7.63
2019-06-20T22:08:56.777Z,6.93
2019-06-20T22:11:26.591Z,6.53
2019-06-20T22:13:56.814Z,7.70
2019-06-20T22:16:26.520Z,7.43
2019-06-20T22:18:56.538Z,6.83
2019-06-20T22:21:26.764Z,6.93
2019-06-20T22:23:56.880Z,7.63
2019-06-20T22:26:26.793Z,7.00
2019-06-20T22:28:56.730Z,8.50
2019-06-20T22:31:27.048Z,9.07
2019-06-20T22:33:57.664Z,6.80
2019-06-20T22:36:39.682Z,7.30
2019-06-20T22:38:59.656Z,5.93
2019-06-20T22:41:30.904Z,5.73
2019-06-20T22:44:01.850Z,7.50
2019-06-20T22:46:31.639Z,6.33
2019-06-20T22:49:01.758Z,6.00
2019-06-20T22:51:31.773Z,6.60
2019-06-20T22:54:01.480Z,7.17
2019-06-20T22:56:31.086Z,6.13
2019-06-20T22:59:01.430Z,5.40
2019-06-20T23:01:31.736Z,6.63
2019-06-20T23:04:01.879Z,6.97
2019-06-20T23:06:31.974Z,7.03
2019-06-20T23:09:02.049Z,8.37
2019-06-20T23:11:32.128Z,6.13
2019-06-20T23:14:02.871Z,10.47
2019-06-20T23:16:32.670Z,8.10
2019-06-20T23:19:02.874Z,6.73
2019-06-20T23:21:32.790Z,8.83
2019-06-20T23:24:03.419Z,7.60
2019-06-20T23:26:33.556Z,8.77
2019-06-20T23:29:22.159Z,9.43
2019-06-20T23:31:52.528Z,9.27
2019-06-20T23:34:22.435Z,10.33
2019-06-20T23:36:52.862Z,10.60
2019-06-20T23:39:23.383Z,10.07
2019-06-20T23:41:53.507Z,13.83
2019-06-20T23:44:23.726Z,10.37
2019-06-20T23:46:53.539Z,8.27
2019-06-20T23:49:23.860Z,8.83
2019-06-20T23:52:02.380Z,8.83
2019-06-20T23:54:33.541Z,9.13
2019-06-20T23:57:03.432Z,7.97
2019-06-20T23:59:33.858Z,10.53
